createdAt,value
2024-05-09T00:01:28.550Z,100.00
2024-05-09T00:04:00.740Z,100.00
2024-05-09T00:06:30.510Z,100.00
2024-05-09T00:09:00.087Z,100.00
2024-05-09T00:11:29.580Z,100.00
2024-05-09T00:13:59.236Z,100.00
2024-05-09T00:16:28.580Z,100.00
2024-05-09T00:19:00.880Z,100.00
2024-05-09T00:21:30.274Z,100.00
2024-05-09T00:23:59.721Z,100.00
2024-05-09T00:26:29.093Z,100.00
2024-05-09T00:28:58.500Z,100.00
2024-05-09T00:31:28.216Z,100.00
2024-05-09T00:34:00.904Z,100.00
2024-05-09T00:36:30.459Z,100.00
2024-05-09T00:39:00.049Z,100.00
2024-05-09T00:41:29.435Z,100.00
2024-05-09T00:43:58.865Z,100.00
2024-05-09T00:46:28.685Z,100.00
2024-05-09T00:49:00.811Z,100.00
2024-05-09T00:51:30.615Z,100.00
2024-05-09T00:54:00.476Z,100.00
2024-05-09T00:56:29.979Z,100.00
2024-05-09T00:58:59.506Z,100.00
2024-05-09T01:01:29.175Z,100.00
2024-05-09T01:04:02.098Z,100.00
2024-05-09T01:06:31.757Z,100.00
2024-05-09T01:09:01.208Z,100.00
2024-05-09T01:11:36.491Z,100.00
2024-05-09T01:14:05.979Z,100.00
2024-05-09T01:16:35.919Z,100.00
2024-05-09T01:19:17.146Z,100.00
2024-05-09T01:21:46.969Z,100.00
2024-05-09T01:24:18.960Z,100.00
2024-05-09T01:26:48.325Z,100.00
2024-05-09T01:29:17.990Z,100.00
2024-05-09T01:31:48.149Z,100.00
2024-05-09T01:34:17.817Z,100.00
2024-05-09T01:36:47.225Z,100.00
2024-05-09T01:39:19.399Z,100.00
2024-05-09T01:41:48.957Z,100.00
2024-05-09T01:44:18.947Z,100.00
2024-05-09T01:46:48.605Z,100.00
2024-05-09T01:49:18.359Z,100.00
2024-05-09T01:51:48.139Z,100.00
2024-05-09T01:54:20.086Z,100.00
2024-05-09T01:56:49.737Z,100.00
2024-05-09T01:59:19.164Z,100.00
2024-05-09T02:01:56.666Z,100.00
2024-05-09T02:04:27.608Z,100.00
2024-05-09T02:06:57.103Z,100.00
2024-05-09T02:09:30.527Z,100.00
2024-05-09T02:12:00.114Z,100.00
2024-05-09T02:14:29.553Z,100.00
2024-05-09T02:16:59.165Z,100.00
2024-05-09T02:19:28.737Z,100.00
2024-05-09T02:21:58.163Z,100.00
2024-05-09T02:24:30.157Z,100.00
2024-05-09T02:26:59.741Z,100.00
2024-05-09T02:29:29.790Z,100.00
2024-05-09T02:31:59.391Z,100.00
2024-05-09T02:34:29.063Z,100.00
2024-05-09T02:36:56.274Z,100.00
2024-05-09T02:39:25.871Z,100.00
2024-05-09T02:41:55.536Z,100.00
2024-05-09T02:44:24.977Z,100.00
2024-05-09T02:46:52.089Z,100.00
2024-05-09T02:49:21.714Z,100.00
2024-05-09T02:51:48.683Z,100.00
2024-05-09T02:54:18.208Z,100.00
2024-05-09T02:56:44.975Z,100.00
2024-05-09T02:59:17.157Z,100.00
2024-05-09T03:01:44.850Z,100.00
2024-05-09T03:04:14.528Z,100.00
2024-05-09T03:06:41.372Z,100.00
2024-05-09T03:09:11.024Z,100.00
2024-05-09T03:11:38.159Z,100.00
2024-05-09T03:14:07.621Z,100.00
2024-05-09T03:16:40.139Z,100.00
2024-05-09T03:19:09.777Z,100.00
2024-05-09T03:21:38.469Z,100.00
2024-05-09T03:24:08.647Z,100.00
2024-05-09T03:26:35.480Z,100.00
2024-05-09T03:29:04.965Z,100.00
2024-05-09T03:31:31.827Z,100.00
2024-05-09T03:34:03.967Z,100.00
2024-05-09T03:36:30.889Z,100.00
2024-05-09T03:39:00.431Z,100.00
2024-05-09T03:41:30.062Z,100.00
2024-05-09T03:43:59.535Z,100.00
2024-05-09T03:46:29.177Z,100.00
2024-05-09T03:48:56.741Z,100.00
2024-05-09T03:51:29.004Z,100.00
2024-05-09T03:53:55.804Z,100.00
2024-05-09T03:56:25.631Z,100.00
2024-05-09T03:58:52.780Z,100.00
2024-05-09T04:01:22.505Z,100.00
2024-05-09T04:03:49.440Z,100.00
2024-05-09T04:06:23.296Z,100.00
2024-05-09T04:08:52.769Z,100.00
2024-05-09T04:11:22.349Z,100.00
2024-05-09T04:13:49.417Z,100.00
2024-05-09T04:16:18.743Z,100.00
2024-05-09T04:18:45.862Z,100.00
2024-05-09T04:21:15.474Z,100.00
2024-05-09T04:23:42.577Z,100.00
2024-05-09T04:26:14.819Z,100.00
2024-05-09T04:28:41.640Z,100.00
2024-05-09T04:31:11.167Z,100.00
2024-05-09T04:33:38.055Z,100.00
2024-05-09T04:36:09.271Z,100.00
2024-05-09T04:38:36.269Z,100.00
2024-05-09T04:41:05.961Z,100.00
2024-05-09T04:43:35.475Z,100.00
2024-05-09T04:46:05.060Z,100.00
2024-05-09T04:48:32.216Z,100.00
2024-05-09T04:51:01.773Z,100.00
2024-05-09T04:53:28.770Z,100.00
2024-05-09T04:55:58.320Z,100.00
2024-05-09T04:58:25.122Z,100.00
2024-05-09T05:00:57.196Z,100.00
2024-05-09T05:03:24.332Z,100.00
2024-05-09T05:05:54.142Z,100.00
2024-05-09T05:08:21.100Z,100.00
2024-05-09T05:10:50.915Z,100.00
2024-05-09T05:13:21.144Z,100.00
2024-05-09T05:15:53.168Z,100.00
2024-05-09T05:18:24.038Z,100.00
2024-05-09T05:20:54.116Z,100.00
2024-05-09T05:23:25.076Z,100.00
2024-05-09T05:25:53.914Z,100.00
2024-05-09T05:28:24.127Z,100.00
2024-05-09T05:30:51.194Z,100.00
2024-05-09T05:33:22.576Z,100.00
2024-05-09T05:35:53.213Z,100.00
2024-05-09T05:38:26.103Z,100.00
2024-05-09T05:40:55.282Z,100.00
2024-05-09T05:43:24.864Z,100.00
2024-05-09T05:45:51.655Z,100.00
2024-05-09T05:48:21.216Z,100.00
2024-05-09T05:50:48.380Z,100.00
2024-05-09T05:53:20.409Z,100.00
2024-05-09T05:55:47.322Z,100.00
2024-05-09T05:58:17.286Z,100.00
2024-05-09T06:00:44.524Z,100.00
2024-05-09T06:03:14.904Z,100.00
2024-05-09T06:05:43.953Z,100.00
2024-05-09T06:08:14.672Z,100.00
2024-05-09T06:10:44.394Z,100.00
2024-05-09T06:13:15.673Z,100.00
2024-05-09T06:15:43.599Z,100.00
2024-05-09T06:18:14.156Z,100.00
2024-05-09T06:20:42.865Z,100.00
2024-05-09T06:23:13.700Z,100.00
2024-05-09T06:25:44.306Z,100.00
2024-05-09T06:28:13.940Z,100.00
2024-05-09T06:30:42.638Z,100.00
2024-05-09T06:33:15.843Z,100.00
2024-05-09T06:35:43.780Z,100.00
2024-05-09T06:38:13.435Z,100.00
2024-05-09T06:40:44.407Z,100.00
2024-05-09T06:43:16.690Z,100.00
2024-05-09T06:45:46.781Z,100.00
2024-05-09T06:48:16.535Z,100.00
2024-05-09T06:50:44.544Z,100.00
2024-05-09T06:53:17.215Z,100.00
2024-05-09T06:55:46.858Z,100.00
2024-05-09T06:58:16.483Z,100.00
2024-05-09T07:00:43.490Z,100.00
2024-05-09T07:03:16.899Z,100.00
2024-05-09T07:05:46.252Z,100.00
2024-05-09T07:08:16.639Z,100.00
2024-05-09T07:10:46.596Z,100.00
2024-05-09T07:13:17.827Z,100.00
2024-05-09T07:15:44.822Z,100.00
2024-05-09T07:18:15.699Z,100.00
2024-05-09T07:20:43.661Z,100.00
2024-05-09T07:23:14.147Z,100.00
2024-05-09T07:25:41.990Z,100.00
2024-05-09T07:28:17.569Z,100.00
2024-05-09T07:30:44.955Z,100.00
2024-05-09T07:33:19.557Z,100.00
2024-05-09T07:36:26.415Z,100.00
2024-05-09T07:38:53.372Z,100.00
2024-05-09T07:41:22.875Z,100.00
2024-05-09T07:43:52.410Z,100.00
2024-05-09T07:53:58.290Z,100.00
2024-05-09T07:56:30.192Z,100.00
2024-05-09T07:58:59.928Z,99.68
2024-05-09T08:01:29.778Z,93.99
2024-05-09T08:03:56.891Z,94.38
2024-05-09T08:06:26.900Z,95.18
2024-05-09T08:08:54.309Z,93.36
2024-05-09T08:11:24.311Z,95.64
2024-05-09T08:13:51.235Z,93.46
2024-05-09T08:16:23.449Z,90.46
2024-05-09T08:18:50.614Z,87.03
2024-05-09T08:21:20.078Z,84.87
2024-05-09T08:23:46.822Z,80.26
2024-05-09T08:30:04.911Z,79.28
2024-05-09T08:32:35.765Z,72.21
2024-05-09T08:35:05.225Z,68.65
2024-05-09T08:37:36.850Z,67.69
2024-05-09T08:40:16.609Z,67.73
2024-05-09T08:42:49.482Z,67.31
2024-05-09T08:45:20.079Z,67.13
2024-05-09T08:47:50.732Z,65.53
2024-05-09T08:50:29.224Z,65.21
2024-05-09T08:53:03.459Z,65.46
2024-05-09T08:55:32.912Z,65.44
2024-05-09T08:58:03.600Z,65.30
2024-05-09T09:00:37.019Z,64.65
2024-05-09T09:03:09.605Z,64.80
2024-05-09T09:05:42.265Z,65.45
2024-05-09T09:08:09.332Z,64.07
2024-05-09T09:10:41.154Z,62.55
2024-05-09T09:13:09.838Z,62.53
2024-05-09T09:15:49.674Z,62.96
2024-05-09T09:18:19.492Z,59.63
2024-05-09T09:20:48.950Z,59.90
2024-05-09T09:23:15.791Z,61.33
2024-05-09T09:25:45.347Z,60.54
2024-05-09T09:28:12.687Z,60.15
2024-05-09T09:30:42.766Z,62.33
2024-05-09T09:33:10.442Z,60.02
2024-05-09T09:35:43.355Z,61.41
2024-05-09T09:38:12.442Z,57.05
2024-05-09T09:40:49.775Z,57.29
2024-05-09T09:43:19.831Z,56.50
2024-05-09T09:45:53.475Z,55.91
2024-05-09T09:48:22.052Z,57.52
2024-05-09T09:50:55.442Z,57.04
2024-05-09T09:53:23.302Z,56.86
2024-05-09T09:55:53.797Z,55.93
2024-05-09T09:58:21.573Z,54.81
2024-05-09T10:00:51.302Z,52.00
2024-05-09T10:03:18.464Z,51.40
2024-05-09T10:05:48.398Z,53.10
2024-05-09T10:08:19.036Z,50.37
2024-05-09T10:10:50.122Z,50.27
2024-05-09T10:13:17.349Z,49.09
2024-05-09T10:15:48.274Z,48.39
2024-05-09T10:18:15.596Z,47.42
2024-05-09T10:20:46.303Z,46.51
2024-05-09T10:23:27.093Z,45.84
2024-05-09T10:26:01.194Z,45.50
2024-05-09T10:28:28.565Z,46.57
2024-05-09T10:31:11.997Z,46.63
2024-05-09T10:33:39.950Z,46.22
2024-05-09T10:36:22.624Z,46.08
2024-05-09T10:38:53.650Z,46.78
2024-05-09T10:41:24.127Z,45.62
2024-05-09T10:43:52.467Z,46.37
2024-05-09T10:46:22.071Z,47.06
2024-05-09T10:48:49.381Z,46.81
2024-05-09T10:51:22.208Z,46.15
2024-05-09T10:53:52.573Z,45.42
2024-05-09T10:56:22.210Z,43.34
2024-05-09T10:58:51.951Z,43.77
2024-05-09T11:01:22.024Z,43.19
2024-05-09T11:03:49.963Z,43.17
2024-05-09T11:06:20.558Z,43.03
2024-05-09T11:08:53.537Z,44.02
2024-05-09T11:11:25.877Z,43.50
2024-05-09T11:13:52.931Z,41.64
2024-05-09T11:16:23.834Z,40.94
2024-05-09T11:18:55.561Z,40.03
2024-05-09T11:21:25.549Z,38.83
2024-05-09T11:23:52.908Z,38.93
2024-05-09T11:26:27.476Z,39.20
2024-05-09T11:28:54.249Z,41.58
2024-05-09T11:31:24.154Z,42.22
2024-05-09T11:33:54.460Z,41.97
2024-05-09T11:36:24.219Z,42.00
2024-05-09T11:38:51.008Z,41.09
2024-05-09T11:41:21.196Z,41.43
2024-05-09T11:43:50.616Z,41.19
2024-05-09T11:46:20.176Z,40.68
2024-05-09T11:48:47.697Z,41.43
2024-05-09T11:51:17.496Z,40.23
2024-05-09T11:53:44.393Z,40.69
2024-05-09T11:56:15.660Z,40.70
2024-05-09T11:58:42.814Z,40.21
2024-05-09T12:01:15.102Z,39.21
2024-05-09T12:03:42.020Z,36.77
2024-05-09T12:06:11.748Z,35.50
2024-05-09T12:08:38.798Z,34.47
2024-05-09T12:11:08.729Z,34.12
2024-05-09T12:13:35.603Z,32.09
2024-05-09T12:16:05.458Z,32.40
2024-05-09T12:18:37.744Z,33.21
2024-05-09T12:21:05.319Z,31.66
2024-05-09T12:23:35.182Z,32.63
2024-05-09T12:26:02.992Z,32.27
2024-05-09T12:28:32.835Z,32.69
2024-05-09T12:30:59.656Z,33.36
2024-05-09T12:33:29.893Z,33.92
2024-05-09T12:35:59.621Z,33.96
2024-05-09T12:38:29.329Z,34.44
2024-05-09T12:40:56.276Z,35.71
2024-05-09T12:43:26.012Z,35.63
2024-05-09T12:48:22.488Z,35.41
2024-05-09T12:50:49.594Z,36.80
2024-05-09T12:53:21.854Z,37.35
2024-05-09T12:55:56.290Z,37.36
2024-05-09T12:58:29.206Z,35.97
2024-05-09T13:00:56.357Z,35.83
2024-05-09T13:03:26.149Z,35.62
2024-05-09T13:05:53.712Z,34.53
2024-05-09T13:08:26.422Z,34.47
2024-05-09T13:10:53.595Z,32.62
2024-05-09T13:13:23.030Z,31.99
2024-05-09T13:15:50.236Z,32.63
2024-05-09T13:18:19.782Z,33.60
2024-05-09T13:20:46.656Z,33.96
2024-05-09T13:23:16.131Z,34.38
2024-05-09T13:25:46.265Z,34.59
2024-05-09T13:28:15.822Z,36.03
2024-05-09T13:30:42.967Z,35.99
2024-05-09T13:33:13.485Z,36.96
2024-05-09T13:35:45.638Z,36.10
2024-05-09T13:38:19.455Z,35.01
2024-05-09T13:40:50.517Z,34.15
2024-05-09T13:43:21.805Z,33.71
2024-05-09T13:45:49.411Z,33.30
2024-05-09T13:48:19.597Z,33.80
2024-05-09T13:50:47.021Z,34.77
2024-05-09T13:53:16.445Z,35.88
2024-05-09T13:55:43.697Z,34.72
2024-05-09T13:58:15.859Z,34.54
2024-05-09T14:00:47.492Z,34.88
2024-05-09T14:03:20.693Z,34.69
2024-05-09T14:05:49.859Z,35.10
2024-05-09T14:08:22.423Z,34.66
2024-05-09T14:10:50.309Z,33.47
2024-05-09T14:13:22.833Z,32.64
2024-05-09T14:15:50.225Z,32.00
2024-05-09T14:18:20.646Z,32.05
2024-05-09T14:20:47.432Z,31.72
2024-05-09T14:23:17.233Z,31.99
2024-05-09T14:25:46.553Z,31.71
2024-05-09T14:28:18.449Z,32.14
2024-05-09T14:30:48.004Z,32.27
2024-05-09T14:33:23.663Z,32.00
2024-05-09T14:35:50.705Z,30.60
2024-05-09T14:38:20.054Z,31.35
2024-05-09T14:40:46.933Z,32.08
2024-05-09T14:43:17.806Z,31.73
2024-05-09T14:45:47.528Z,33.23
2024-05-09T14:48:20.086Z,34.43
2024-05-09T14:50:47.110Z,34.39
2024-05-09T14:53:16.598Z,33.56
2024-05-09T14:55:44.078Z,32.31
2024-05-09T14:58:14.438Z,30.86
2024-05-09T15:00:46.289Z,30.79
2024-05-09T15:03:22.875Z,29.36
2024-05-09T15:05:50.765Z,29.58
2024-05-09T15:08:21.438Z,28.92
2024-05-09T15:10:50.057Z,29.78
2024-05-09T15:13:20.800Z,31.51
2024-05-09T15:15:48.298Z,32.76
2024-05-09T15:18:18.690Z,32.86
2024-05-09T15:20:49.056Z,34.12
2024-05-09T15:23:19.088Z,35.01
2024-05-09T15:25:47.451Z,35.63
2024-05-09T15:28:17.045Z,37.02
2024-05-09T15:30:46.240Z,36.35
2024-05-09T15:33:16.842Z,35.12
2024-05-09T15:35:46.192Z,34.53
2024-05-09T15:38:19.167Z,32.57
2024-05-09T15:40:46.541Z,32.55
2024-05-09T15:43:16.390Z,31.66
2024-05-09T15:45:43.252Z,30.72
2024-05-09T15:48:12.956Z,30.90
2024-05-09T15:50:42.037Z,29.36
2024-05-09T15:53:14.003Z,28.90
2024-05-09T15:55:43.794Z,28.14
2024-05-09T15:58:14.158Z,28.40
2024-05-09T16:00:44.221Z,29.50
2024-05-09T16:03:15.832Z,30.01
2024-05-09T16:05:43.916Z,31.59
2024-05-09T16:08:14.370Z,32.37
2024-05-09T16:10:46.130Z,32.84
2024-05-09T16:13:17.807Z,33.32
2024-05-09T16:15:45.316Z,34.59
2024-05-09T16:18:17.165Z,34.70
2024-05-09T16:20:45.656Z,35.65
2024-05-09T16:23:17.119Z,32.98
2024-05-09T16:25:48.492Z,32.44
2024-05-09T16:28:18.750Z,31.51
2024-05-09T16:30:45.815Z,30.78
2024-05-09T16:33:15.560Z,29.71
2024-05-09T16:35:42.516Z,28.98
2024-05-09T16:38:15.235Z,28.79
2024-05-09T16:40:42.405Z,27.96
2024-05-09T16:43:15.808Z,28.21
2024-05-09T16:45:44.696Z,28.24
2024-05-09T16:48:15.047Z,27.42
2024-05-09T16:50:42.231Z,26.70
2024-05-09T16:53:12.717Z,26.69
2024-05-09T16:55:39.922Z,26.63
2024-05-09T16:58:12.426Z,26.64
2024-05-09T17:00:43.770Z,26.98
2024-05-09T17:03:16.267Z,26.94
2024-05-09T17:05:45.982Z,26.59
2024-05-09T17:08:18.175Z,26.51
2024-05-09T17:10:45.644Z,27.03
2024-05-09T17:13:16.971Z,27.03
2024-05-09T17:15:50.349Z,27.48
2024-05-09T17:18:20.447Z,27.54
2024-05-09T17:20:47.623Z,27.40
2024-05-09T17:23:17.381Z,27.71
2024-05-09T17:25:44.260Z,28.34
2024-05-09T17:28:13.949Z,28.76
2024-05-09T17:30:42.264Z,29.06
2024-05-09T17:33:15.296Z,29.54
2024-05-09T17:35:42.342Z,30.27
2024-05-09T17:38:12.311Z,30.96
2024-05-09T17:40:39.902Z,31.46
2024-05-09T17:43:10.908Z,32.18
2024-05-09T17:45:38.522Z,32.91
2024-05-09T17:48:10.718Z,33.63
2024-05-09T17:50:43.776Z,34.35
2024-05-09T17:53:11.254Z,34.75
2024-05-09T17:55:42.656Z,34.94
2024-05-09T17:58:10.093Z,35.71
2024-05-09T18:00:42.085Z,35.98
2024-05-09T18:03:12.032Z,36.41
2024-05-09T18:05:46.323Z,36.62
2024-05-09T18:08:15.644Z,36.72
2024-05-09T18:10:45.354Z,37.10
2024-05-09T18:13:13.222Z,37.87
2024-05-09T18:15:44.928Z,39.07
2024-05-09T18:18:12.880Z,41.14
2024-05-09T18:20:46.330Z,42.53
2024-05-09T18:23:16.204Z,44.59
2024-05-09T18:25:47.937Z,46.50
2024-05-09T18:28:15.341Z,47.93
2024-05-09T18:30:45.457Z,49.41
2024-05-09T18:33:14.765Z,50.70
2024-05-09T18:35:49.377Z,52.19
2024-05-09T18:38:17.494Z,53.93
2024-05-09T18:40:49.368Z,54.77
2024-05-09T18:43:16.894Z,56.08
2024-05-09T18:45:47.472Z,57.28
2024-05-09T18:48:17.216Z,58.10
2024-05-09T18:50:46.752Z,58.79
2024-05-09T18:53:16.644Z,59.70
2024-05-09T18:55:43.605Z,60.70
2024-05-09T18:58:13.420Z,60.59
2024-05-09T19:00:42.980Z,62.51
2024-05-09T19:03:15.620Z,63.26
2024-05-09T19:05:44.384Z,63.70
2024-05-09T19:08:17.944Z,65.32
2024-05-09T19:10:45.967Z,65.43
2024-05-09T19:13:16.571Z,66.18
2024-05-09T19:15:44.133Z,67.87
2024-05-09T19:18:15.428Z,69.17
2024-05-09T19:20:42.828Z,69.87
2024-05-09T19:23:13.038Z,71.03
2024-05-09T19:25:42.893Z,71.27
2024-05-09T19:28:12.756Z,71.53
2024-05-09T19:30:42.152Z,72.92
2024-05-09T19:33:14.021Z,74.05
2024-05-09T19:35:42.049Z,74.09
2024-05-09T19:38:11.897Z,74.75
2024-05-09T19:40:39.016Z,75.28
2024-05-09T19:43:13.395Z,75.41
2024-05-09T19:45:40.476Z,74.96
2024-05-09T19:48:10.814Z,74.88
2024-05-09T19:50:42.875Z,77.01
2024-05-09T19:53:14.641Z,77.79
2024-05-09T19:55:42.614Z,80.14
2024-05-09T19:58:15.737Z,79.73
2024-05-09T20:00:44.092Z,79.73
2024-05-09T20:03:15.742Z,80.21
2024-05-09T20:05:46.661Z,80.41
2024-05-09T20:08:16.578Z,81.10
2024-05-09T20:10:44.559Z,81.92
2024-05-09T20:13:17.333Z,82.77
2024-05-09T20:15:44.256Z,83.05
2024-05-09T20:18:14.791Z,83.80
2024-05-09T20:20:43.867Z,85.29
2024-05-09T20:23:15.580Z,85.50
2024-05-09T20:25:43.167Z,86.91
2024-05-09T20:28:13.684Z,87.41
2024-05-09T20:30:43.939Z,86.55
2024-05-09T20:33:14.248Z,86.18
2024-05-09T20:35:42.051Z,86.28
2024-05-09T20:38:11.451Z,87.21
2024-05-09T20:40:39.640Z,87.32
2024-05-09T20:43:11.985Z,88.58
2024-05-09T20:45:39.952Z,89.59
2024-05-09T20:48:13.052Z,90.24
2024-05-09T20:50:42.419Z,90.54
2024-05-09T20:53:14.653Z,90.64
2024-05-09T20:55:42.707Z,91.58
2024-05-09T20:58:14.033Z,92.13
2024-05-09T21:00:44.696Z,92.13
2024-05-09T21:03:18.352Z,92.59
2024-05-09T21:05:45.980Z,93.21
2024-05-09T21:08:16.086Z,93.45
2024-05-09T21:10:43.256Z,96.15
2024-05-09T21:13:13.643Z,95.90
2024-05-09T21:15:40.764Z,94.04
2024-05-09T21:18:11.050Z,92.14
2024-05-09T21:20:40.569Z,92.99
2024-05-09T21:23:10.148Z,92.39
2024-05-09T21:25:37.360Z,92.37
2024-05-09T21:28:07.392Z,93.72
2024-05-09T21:30:41.292Z,93.45
2024-05-09T21:33:14.545Z,96.06
2024-05-09T21:35:47.373Z,96.48
2024-05-09T21:38:15.276Z,97.40
2024-05-09T21:40:45.666Z,100.00
2024-05-09T21:43:12.840Z,99.51
2024-05-09T21:45:42.702Z,97.29
2024-05-09T21:48:12.425Z,96.20
2024-05-09T21:50:42.689Z,95.57
2024-05-09T21:53:13.313Z,95.71
2024-05-09T21:55:43.831Z,96.15
2024-05-09T21:58:11.942Z,96.86
2024-05-09T22:00:43.165Z,97.77
2024-05-09T22:03:11.618Z,99.01
2024-05-09T22:05:45.201Z,99.63
2024-05-09T22:08:15.010Z,100.00
2024-05-09T22:10:45.272Z,100.00
2024-05-09T22:13:12.250Z,100.00
2024-05-09T22:15:42.467Z,100.00
2024-05-09T22:18:10.807Z,100.00
2024-05-09T22:20:45.108Z,100.00
2024-05-09T22:23:16.115Z,100.00
2024-05-09T22:25:45.698Z,100.00
2024-05-09T22:28:14.641Z,100.00
2024-05-09T22:30:46.575Z,100.00
2024-05-09T22:33:15.055Z,100.00
2024-05-09T22:35:44.839Z,100.00
2024-05-09T22:38:11.693Z,100.00
2024-05-09T22:40:48.356Z,100.00
2024-05-09T22:43:18.838Z,100.00
2024-05-09T22:45:49.689Z,100.00
2024-05-09T22:48:17.052Z,100.00
2024-05-09T22:50:47.100Z,100.00
2024-05-09T22:53:13.919Z,100.00
2024-05-09T22:55:46.168Z,100.00
2024-05-09T22:58:13.076Z,100.00
2024-05-09T23:00:42.838Z,100.00
2024-05-09T23:03:09.716Z,100.00
2024-05-09T23:05:39.165Z,100.00
2024-05-09T23:08:06.305Z,100.00
2024-05-09T23:10:37.890Z,100.00
2024-05-09T23:13:08.533Z,100.00
2024-05-09T23:15:38.925Z,100.00
2024-05-09T23:18:06.572Z,100.00
2024-05-09T23:20:39.194Z,100.00
2024-05-09T23:23:07.171Z,100.00
2024-05-09T23:25:36.817Z,100.00
2024-05-09T23:28:04.719Z,100.00
2024-05-09T23:30:39.738Z,100.00
2024-05-09T23:33:09.904Z,100.00
2024-05-09T23:35:39.634Z,100.00
2024-05-09T23:38:06.699Z,100.00
2024-05-09T23:40:39.723Z,100.00
2024-05-09T23:43:10.057Z,100.00
2024-05-09T23:45:42.786Z,100.00
2024-05-09T23:48:10.560Z,100.00
2024-05-09T23:50:40.956Z,100.00
2024-05-09T23:53:09.712Z,100.00
2024-05-09T23:55:40.081Z,100.00
2024-05-09T23:58:07.446Z,100.00
